createdAt,value
2023-05-07T00:00:20.431Z,14.34
2023-05-07T00:01:20.486Z,14.35
2023-05-07T00:02:20.413Z,14.37
2023-05-07T00:03:20.439Z,14.40
2023-05-07T00:04:20.528Z,14.38
2023-05-07T00:05:20.488Z,14.38
2023-05-07T00:06:20.391Z,14.40
2023-05-07T00:07:20.386Z,14.41
2023-05-07T00:08:20.386Z,14.42
2023-05-07T00:09:20.391Z,14.41
2023-05-07T00:10:20.397Z,14.41
2023-05-07T00:11:20.481Z,14.45
2023-05-07T00:12:20.535Z,14.47
2023-05-07T00:13:20.662Z,14.47
2023-05-07T00:14:20.642Z,14.45
2023-05-07T00:15:20.706Z,14.48
2023-05-07T00:16:20.825Z,14.48
2023-05-07T00:17:21.215Z,14.48
2023-05-07T00:18:20.873Z,14.47
2023-05-07T00:19:20.940Z,14.46
2023-05-07T00:20:20.984Z,14.45
2023-05-07T00:21:21.031Z,14.43
2023-05-07T00:22:21.113Z,14.43
2023-05-07T00:23:21.142Z,14.42
2023-05-07T00:24:21.200Z,14.43
2023-05-07T00:25:21.255Z,14.42
2023-05-07T00:26:21.302Z,14.40
2023-05-07T00:27:21.464Z,14.42
2023-05-07T00:28:21.423Z,14.45
2023-05-07T00:29:21.464Z,14.47
2023-05-07T00:30:21.562Z,14.47
2023-05-07T00:31:21.714Z,14.45
2023-05-07T00:32:21.660Z,14.44
2023-05-07T00:33:21.670Z,14.46
2023-05-07T00:34:21.723Z,14.49
2023-05-07T00:35:21.803Z,14.49
2023-05-07T00:36:21.841Z,14.46
2023-05-07T00:37:21.922Z,14.45
2023-05-07T00:38:21.961Z,14.43
2023-05-07T00:39:22.003Z,14.44
2023-05-07T00:40:22.064Z,14.43
2023-05-07T00:41:22.135Z,14.43
2023-05-07T00:42:22.191Z,14.40
2023-05-07T00:43:22.344Z,14.38
2023-05-07T00:44:22.322Z,14.39
2023-05-07T00:45:22.372Z,14.38
2023-05-07T00:46:22.507Z,14.32
2023-05-07T00:47:22.459Z,14.26
2023-05-07T00:48:22.450Z,14.26
2023-05-07T00:49:22.451Z,14.29
2023-05-07T00:50:22.484Z,14.31
2023-05-07T00:51:22.560Z,14.33
2023-05-07T00:52:22.616Z,14.33
2023-05-07T00:53:22.678Z,14.32
2023-05-07T00:54:23.879Z,14.33
2023-05-07T00:55:22.805Z,14.32
2023-05-07T00:56:22.885Z,14.34
2023-05-07T00:57:22.946Z,14.34
2023-05-07T00:58:23.008Z,14.33
2023-05-07T00:59:23.196Z,14.32
2023-05-07T01:00:23.166Z,14.33
2023-05-07T01:01:23.230Z,14.30
2023-05-07T01:02:23.309Z,14.30
2023-05-07T01:03:23.338Z,14.31
2023-05-07T01:04:23.460Z,14.30
2023-05-07T01:05:23.488Z,14.28
2023-05-07T01:06:23.550Z,14.29
2023-05-07T01:07:23.625Z,14.27
2023-05-07T01:08:23.692Z,14.27
2023-05-07T01:09:23.748Z,14.28
2023-05-07T01:10:23.818Z,14.26
2023-05-07T01:11:23.885Z,14.23
2023-05-07T01:12:23.942Z,14.23
2023-05-07T01:13:24.136Z,14.24
2023-05-07T01:14:24.015Z,14.23
2023-05-07T01:15:24.164Z,14.24
2023-05-07T01:16:24.134Z,14.25
2023-05-07T01:17:24.231Z,14.27
2023-05-07T01:18:24.248Z,14.26
2023-05-07T01:19:24.317Z,14.25
2023-05-07T01:20:24.369Z,14.18
2023-05-07T01:21:24.421Z,14.15
2023-05-07T01:22:24.512Z,14.15
2023-05-07T01:23:24.495Z,14.16
2023-05-07T01:24:24.572Z,14.17
2023-05-07T01:25:24.652Z,14.19
2023-05-07T01:26:24.741Z,14.03
2023-05-07T01:27:24.801Z,13.90
2023-05-07T01:28:24.862Z,13.94
2023-05-07T01:29:24.937Z,13.95
2023-05-07T01:30:24.995Z,13.94
2023-05-07T01:31:25.114Z,14.01
2023-05-07T01:32:25.145Z,14.09
2023-05-07T01:33:25.188Z,14.09
2023-05-07T01:34:25.269Z,14.11
2023-05-07T01:35:25.331Z,14.15
2023-05-07T01:36:25.381Z,14.17
2023-05-07T01:37:25.464Z,14.18
2023-05-07T01:38:25.516Z,14.18
2023-05-07T01:39:25.590Z,14.20
2023-05-07T01:40:25.684Z,14.23
2023-05-07T01:41:25.752Z,14.24
2023-05-07T01:42:25.811Z,14.26
2023-05-07T01:43:25.873Z,14.29
2023-05-07T01:44:25.960Z,14.29
2023-05-07T01:45:26.019Z,14.28
2023-05-07T01:46:26.162Z,14.26
2023-05-07T01:47:26.366Z,14.26
2023-05-07T01:48:26.239Z,14.29
2023-05-07T01:49:26.313Z,14.31
2023-05-07T01:50:26.409Z,14.34
2023-05-07T01:51:26.462Z,14.35
2023-05-07T01:52:26.573Z,14.36
2023-05-07T01:53:26.577Z,14.32
2023-05-07T01:54:26.641Z,14.20
2023-05-07T01:55:26.692Z,14.15
2023-05-07T01:56:26.759Z,14.19
2023-05-07T01:57:26.858Z,14.18
2023-05-07T01:58:26.883Z,14.23
2023-05-07T01:59:26.940Z,14.26
2023-05-07T02:00:27.006Z,14.26
2023-05-07T02:01:27.111Z,14.28
2023-05-07T02:02:27.252Z,14.32
2023-05-07T02:03:27.436Z,14.34
2023-05-07T02:04:27.313Z,14.35
2023-05-07T02:05:27.382Z,14.36
2023-05-07T02:06:27.449Z,14.37
2023-05-07T02:07:27.515Z,14.37
2023-05-07T02:08:27.614Z,14.32
2023-05-07T02:09:27.648Z,14.30
2023-05-07T02:10:27.713Z,14.28
2023-05-07T02:11:27.787Z,14.25
2023-05-07T02:12:27.861Z,14.25
2023-05-07T02:13:27.945Z,14.29
2023-05-07T02:14:28.016Z,14.29
2023-05-07T02:15:28.104Z,14.17
2023-05-07T02:16:28.244Z,13.94
2023-05-07T02:17:28.277Z,13.80
2023-05-07T02:18:28.333Z,13.66
2023-05-07T02:19:28.479Z,13.61
2023-05-07T02:20:28.455Z,13.65
2023-05-07T02:21:30.590Z,13.74
2023-05-07T02:22:28.523Z,13.83
2023-05-07T02:23:28.531Z,13.91
2023-05-07T02:24:28.530Z,13.97
2023-05-07T02:25:28.529Z,14.03
2023-05-07T02:26:28.551Z,14.08
2023-05-07T02:27:28.552Z,14.12
2023-05-07T02:28:28.561Z,14.08
2023-05-07T02:29:28.600Z,14.04
2023-05-07T02:30:28.572Z,14.02
2023-05-07T02:31:28.638Z,14.01
2023-05-07T02:32:28.617Z,14.03
2023-05-07T02:33:28.597Z,14.05
2023-05-07T02:34:28.642Z,14.08
2023-05-07T02:35:28.664Z,14.10
2023-05-07T02:36:28.621Z,14.12
2023-05-07T02:37:28.634Z,14.10
2023-05-07T02:38:28.650Z,14.11
2023-05-07T02:39:28.650Z,14.11
2023-05-07T02:40:28.667Z,14.12
2023-05-07T02:41:28.668Z,14.03
2023-05-07T02:42:28.791Z,14.00
2023-05-07T02:43:28.695Z,14.00
2023-05-07T02:44:28.710Z,14.01
2023-05-07T02:45:28.833Z,13.99
2023-05-07T02:46:28.964Z,14.00
2023-05-07T02:47:28.808Z,14.00
2023-05-07T02:48:28.755Z,14.01
2023-05-07T02:49:28.788Z,13.99
2023-05-07T02:50:28.777Z,13.98
2023-05-07T02:51:29.092Z,13.98
2023-05-07T02:52:28.816Z,13.98
2023-05-07T02:53:28.829Z,13.99
2023-05-07T02:54:28.839Z,13.99
2023-05-07T02:55:28.838Z,14.01
2023-05-07T02:56:28.857Z,13.99
2023-05-07T02:57:28.871Z,13.98
2023-05-07T02:58:28.901Z,13.94
2023-05-07T02:59:28.925Z,13.92
2023-05-07T03:00:28.932Z,13.92
2023-05-07T03:01:28.978Z,13.88
2023-05-07T03:02:28.993Z,13.89
2023-05-07T03:03:28.967Z,13.88
2023-05-07T03:04:29.046Z,13.88
2023-05-07T03:05:28.999Z,13.89
2023-05-07T03:06:29.017Z,13.90
2023-05-07T03:07:29.159Z,13.91
2023-05-07T03:08:29.034Z,13.90
2023-05-07T03:09:29.056Z,13.90
2023-05-07T03:10:29.085Z,13.87
2023-05-07T03:11:29.114Z,13.89
2023-05-07T03:12:29.156Z,13.83
2023-05-07T03:13:29.180Z,13.79
2023-05-07T03:14:29.176Z,13.77
2023-05-07T03:15:29.211Z,13.73
2023-05-07T03:16:29.356Z,13.61
2023-05-07T03:17:29.365Z,13.51
2023-05-07T03:18:29.475Z,13.46
2023-05-07T03:19:29.519Z,13.44
2023-05-07T03:20:29.635Z,13.39
2023-05-07T03:21:29.721Z,13.40
2023-05-07T03:22:29.841Z,13.41
2023-05-07T03:23:29.985Z,13.43
2023-05-07T03:24:29.956Z,13.46
2023-05-07T03:25:30.041Z,13.48
2023-05-07T03:26:30.082Z,13.47
2023-05-07T03:27:30.150Z,13.43
2023-05-07T03:28:30.172Z,13.42
2023-05-07T03:29:30.227Z,13.42
2023-05-07T03:30:30.297Z,13.36
2023-05-07T03:31:30.386Z,13.30
2023-05-07T03:32:30.502Z,13.28
2023-05-07T03:33:30.548Z,13.25
2023-05-07T03:34:30.640Z,13.23
2023-05-07T03:35:30.753Z,13.23
2023-05-07T03:36:30.839Z,13.19
2023-05-07T03:37:30.990Z,13.15
2023-05-07T03:38:31.033Z,13.12
2023-05-07T03:39:31.262Z,13.10
2023-05-07T03:40:31.236Z,13.06
2023-05-07T03:41:31.352Z,13.10
2023-05-07T03:42:31.423Z,13.13
2023-05-07T03:43:31.509Z,13.16
2023-05-07T03:44:31.588Z,13.18
2023-05-07T03:45:31.666Z,13.17
2023-05-07T03:46:31.764Z,13.16
2023-05-07T03:47:31.921Z,13.17
2023-05-07T03:48:31.872Z,13.18
2023-05-07T03:49:31.954Z,13.15
2023-05-07T03:50:31.999Z,13.14
2023-05-07T03:51:32.111Z,13.15
2023-05-07T03:52:32.264Z,13.10
2023-05-07T03:53:32.194Z,13.08
2023-05-07T03:54:32.251Z,13.00
2023-05-07T03:55:32.452Z,12.94
2023-05-07T03:56:32.389Z,12.94
2023-05-07T03:57:32.451Z,12.96
2023-05-07T03:58:32.490Z,13.00
2023-05-07T03:59:32.585Z,13.03
2023-05-07T04:00:32.680Z,13.03
2023-05-07T04:01:32.840Z,13.05
2023-05-07T04:02:32.929Z,13.08
2023-05-07T04:03:33.037Z,13.00
2023-05-07T04:04:33.029Z,12.97
2023-05-07T04:05:33.118Z,13.01
2023-05-07T04:06:33.180Z,13.05
2023-05-07T04:07:33.305Z,13.09
2023-05-07T04:08:33.310Z,13.13
2023-05-07T04:09:33.374Z,13.14
2023-05-07T04:10:33.436Z,13.17
2023-05-07T04:11:33.602Z,13.16
2023-05-07T04:12:33.573Z,13.16
2023-05-07T04:13:33.643Z,13.16
2023-05-07T04:14:33.724Z,13.17
2023-05-07T04:15:33.797Z,13.12
2023-05-07T04:16:34.024Z,13.11
2023-05-07T04:17:33.995Z,13.12
2023-05-07T04:18:34.075Z,13.10
2023-05-07T04:19:34.157Z,13.09
2023-05-07T04:20:34.239Z,13.12
2023-05-07T04:21:34.340Z,13.11
2023-05-07T04:22:34.622Z,13.09
2023-05-07T04:23:34.480Z,13.03
2023-05-07T04:24:34.545Z,13.02
2023-05-07T04:25:34.633Z,13.03
2023-05-07T04:26:34.733Z,13.06
2023-05-07T04:27:34.865Z,13.11
2023-05-07T04:28:34.905Z,13.14
2023-05-07T04:29:34.971Z,13.13
2023-05-07T04:30:35.076Z,13.11
2023-05-07T04:31:35.953Z,13.11
2023-05-07T04:32:35.153Z,13.16
2023-05-07T04:33:35.200Z,13.20
2023-05-07T04:34:35.513Z,13.26
2023-05-07T04:35:35.320Z,13.31
2023-05-07T04:36:35.356Z,13.35
2023-05-07T04:37:35.405Z,13.39
2023-05-07T04:38:35.431Z,13.40
2023-05-07T04:39:35.467Z,13.45
2023-05-07T04:40:35.500Z,13.47
2023-05-07T04:41:35.554Z,13.39
2023-05-07T04:42:35.631Z,13.32
2023-05-07T04:43:35.750Z,13.33
2023-05-07T04:44:35.821Z,13.37
2023-05-07T04:45:35.947Z,13.43
2023-05-07T04:46:36.186Z,13.50
2023-05-07T04:47:36.104Z,13.56
2023-05-07T04:48:36.080Z,13.64
2023-05-07T04:49:36.093Z,13.69
2023-05-07T04:50:36.127Z,13.71
2023-05-07T04:51:36.184Z,13.72
2023-05-07T04:52:36.293Z,13.78
2023-05-07T04:53:36.336Z,13.85
2023-05-07T04:54:36.406Z,13.91
2023-05-07T04:55:36.496Z,13.98
2023-05-07T04:56:36.575Z,14.01
2023-05-07T04:57:36.693Z,14.06
2023-05-07T04:58:36.720Z,14.12
2023-05-07T04:59:36.800Z,14.18
2023-05-07T05:00:36.851Z,14.24
2023-05-07T05:01:36.995Z,14.31
2023-05-07T05:02:37.033Z,14.38
2023-05-07T05:03:37.179Z,14.45
2023-05-07T05:04:37.111Z,14.51
2023-05-07T05:05:37.165Z,14.58
2023-05-07T05:06:37.237Z,14.59
2023-05-07T05:07:37.320Z,14.61
2023-05-07T05:08:37.395Z,14.64
2023-05-07T05:09:37.443Z,14.68
2023-05-07T05:10:37.497Z,14.72
2023-05-07T05:11:37.561Z,14.78
2023-05-07T05:12:37.711Z,14.85
2023-05-07T05:13:37.654Z,14.91
2023-05-07T05:14:37.722Z,14.94
2023-05-07T05:15:37.779Z,14.99
2023-05-07T05:16:37.912Z,15.07
2023-05-07T05:17:37.935Z,15.09
2023-05-07T05:18:37.947Z,15.16
2023-05-07T05:19:38.006Z,15.23
2023-05-07T05:20:38.067Z,15.26
2023-05-07T05:21:38.131Z,15.29
2023-05-07T05:22:38.186Z,15.31
2023-05-07T05:23:38.230Z,15.37
2023-05-07T05:24:38.273Z,15.45
2023-05-07T05:25:38.380Z,15.50
2023-05-07T05:26:38.390Z,15.58
2023-05-07T05:27:38.432Z,15.61
2023-05-07T05:28:38.417Z,15.66
2023-05-07T05:29:38.435Z,15.76
2023-05-07T05:30:38.467Z,15.82
2023-05-07T05:31:38.572Z,15.82
2023-05-07T05:32:38.590Z,15.85
2023-05-07T05:33:38.563Z,15.89
2023-05-07T05:34:38.614Z,15.90
2023-05-07T05:35:38.601Z,15.90
2023-05-07T05:36:38.637Z,15.94
2023-05-07T05:37:38.688Z,15.97
2023-05-07T05:38:38.731Z,15.91
2023-05-07T05:39:38.758Z,15.96
2023-05-07T05:40:38.800Z,16.02
2023-05-07T05:41:38.818Z,16.10
2023-05-07T05:42:38.851Z,16.12
2023-05-07T05:43:38.865Z,16.22
2023-05-07T05:44:38.954Z,16.30
2023-05-07T05:45:38.897Z,16.33
2023-05-07T05:46:38.935Z,16.35
2023-05-07T05:47:39.074Z,16.38
2023-05-07T05:48:39.142Z,16.45
2023-05-07T05:49:38.938Z,16.47
2023-05-07T05:50:38.958Z,16.43
2023-05-07T05:51:39.015Z,16.43
2023-05-07T05:52:39.347Z,16.50
2023-05-07T05:53:39.036Z,16.52
2023-05-07T05:54:39.049Z,16.59
2023-05-07T05:55:39.049Z,16.66
2023-05-07T05:56:39.046Z,16.69
2023-05-07T05:57:39.029Z,16.72
2023-05-07T05:58:39.034Z,16.70
2023-05-07T05:59:39.961Z,16.68
2023-05-07T06:00:39.034Z,16.64
2023-05-07T06:01:39.063Z,16.65
2023-05-07T06:02:39.293Z,16.67
2023-05-07T06:03:39.124Z,16.68
2023-05-07T06:04:39.098Z,16.76
2023-05-07T06:05:39.076Z,16.81
2023-05-07T06:06:39.076Z,16.86
2023-05-07T06:07:39.105Z,16.87
2023-05-07T06:08:39.084Z,16.84
2023-05-07T06:09:39.084Z,16.85
2023-05-07T06:10:39.113Z,16.90
2023-05-07T06:11:39.057Z,16.94
2023-05-07T06:12:39.131Z,16.97
2023-05-07T06:13:39.061Z,16.95
2023-05-07T06:14:39.051Z,16.98
2023-05-07T06:15:39.110Z,17.01
2023-05-07T06:16:39.300Z,16.85
2023-05-07T06:17:39.265Z,16.88
2023-05-07T06:18:39.228Z,16.94
2023-05-07T06:19:39.315Z,16.99
2023-05-07T06:20:39.331Z,17.07
2023-05-07T06:21:39.347Z,17.16
2023-05-07T06:22:39.390Z,17.21
2023-05-07T06:23:40.738Z,17.27
2023-05-07T06:24:39.377Z,17.27
2023-05-07T06:25:39.386Z,17.32
2023-05-07T06:26:39.387Z,17.36
2023-05-07T06:27:39.376Z,17.41
2023-05-07T06:28:39.370Z,17.43
2023-05-07T06:29:39.365Z,17.46
2023-05-07T06:30:39.344Z,17.51
2023-05-07T06:31:39.387Z,17.57
2023-05-07T06:32:39.372Z,17.59
2023-05-07T06:33:39.340Z,17.48
2023-05-07T06:34:39.393Z,17.46
2023-05-07T06:35:39.511Z,17.44
2023-05-07T06:36:39.510Z,17.50
2023-05-07T06:37:39.526Z,17.44
2023-05-07T06:38:39.511Z,17.49
2023-05-07T06:39:39.541Z,17.56
2023-05-07T06:40:39.550Z,17.62
2023-05-07T06:41:39.548Z,17.67
2023-05-07T06:42:39.575Z,17.72
2023-05-07T06:43:39.548Z,17.73
2023-05-07T06:44:39.526Z,17.80
2023-05-07T06:45:39.513Z,17.86
2023-05-07T06:46:39.588Z,17.86
2023-05-07T06:47:39.571Z,17.91
2023-05-07T06:48:39.472Z,17.93
2023-05-07T06:49:39.462Z,17.95
2023-05-07T06:50:39.435Z,18.01
2023-05-07T06:51:39.435Z,17.98
2023-05-07T06:52:39.469Z,17.99
2023-05-07T06:53:39.397Z,18.06
2023-05-07T06:54:39.370Z,18.04
2023-05-07T06:55:39.359Z,18.06
2023-05-07T06:56:39.315Z,18.09
2023-05-07T06:57:39.336Z,18.13
2023-05-07T06:58:39.337Z,18.19
2023-05-07T06:59:39.332Z,18.21
2023-05-07T07:00:39.359Z,18.25
2023-05-07T07:01:39.772Z,18.28
2023-05-07T07:02:39.421Z,18.32
2023-05-07T07:03:39.358Z,18.32
2023-05-07T07:04:39.764Z,18.35
2023-05-07T07:05:39.284Z,18.40
2023-05-07T07:06:39.271Z,18.45
2023-05-07T07:07:39.416Z,18.43
2023-05-07T07:08:39.281Z,18.50
2023-05-07T07:09:39.272Z,18.53
2023-05-07T07:10:39.267Z,18.47
2023-05-07T07:11:39.247Z,18.38
2023-05-07T07:12:39.316Z,18.45
2023-05-07T07:13:39.195Z,18.46
2023-05-07T07:14:39.165Z,18.51
2023-05-07T07:15:39.126Z,18.55
2023-05-07T07:16:39.274Z,18.57
2023-05-07T07:17:39.182Z,18.21
2023-05-07T07:18:39.118Z,18.19
2023-05-07T07:19:39.110Z,17.96
2023-05-07T07:20:39.121Z,18.13
2023-05-07T07:21:39.122Z,18.16
2023-05-07T07:22:39.119Z,18.21
2023-05-07T07:23:39.207Z,18.36
2023-05-07T07:24:39.097Z,18.49
2023-05-07T07:25:39.108Z,18.62
2023-05-07T07:26:39.099Z,18.70
2023-05-07T07:27:39.120Z,18.76
2023-05-07T07:28:39.118Z,18.78
2023-05-07T07:29:39.086Z,18.73
2023-05-07T07:30:39.092Z,18.81
2023-05-07T07:31:39.179Z,18.91
2023-05-07T07:32:39.152Z,18.99
2023-05-07T07:33:39.111Z,19.03
2023-05-07T07:34:39.149Z,19.07
2023-05-07T07:35:39.119Z,19.14
2023-05-07T07:36:46.279Z,19.09
2023-05-07T07:37:39.052Z,18.84
2023-05-07T07:38:38.976Z,18.49
2023-05-07T07:39:39.007Z,18.50
2023-05-07T07:40:38.850Z,18.48
2023-05-07T07:41:38.796Z,18.54
2023-05-07T07:42:38.780Z,18.70
2023-05-07T07:43:38.676Z,18.86
2023-05-07T07:44:38.620Z,19.02
2023-05-07T07:45:41.065Z,19.13
2023-05-07T07:46:38.557Z,19.19
2023-05-07T07:47:38.589Z,19.24
2023-05-07T07:48:38.420Z,19.30
2023-05-07T07:49:38.348Z,19.36
2023-05-07T07:50:45.177Z,19.38
2023-05-07T07:51:38.244Z,19.43
2023-05-07T07:52:38.193Z,19.52
2023-05-07T07:53:38.125Z,19.41
2023-05-07T07:54:38.074Z,19.39
2023-05-07T07:55:38.030Z,19.48
2023-05-07T07:56:37.944Z,19.56
2023-05-07T07:57:37.883Z,19.55
2023-05-07T07:58:37.835Z,19.54
2023-05-07T07:59:37.791Z,19.58
2023-05-07T08:00:37.735Z,19.66
2023-05-07T08:01:37.721Z,19.72
2023-05-07T08:02:37.741Z,19.77
2023-05-07T08:03:37.731Z,19.77
2023-05-07T08:04:37.775Z,19.87
2023-05-07T08:05:37.450Z,19.94
2023-05-07T08:06:37.386Z,20.00
2023-05-07T08:07:37.319Z,20.11
2023-05-07T08:08:37.256Z,20.18
2023-05-07T08:09:37.183Z,20.28
2023-05-07T08:10:37.123Z,20.36
2023-05-07T08:11:37.140Z,20.44
2023-05-07T08:12:37.020Z,20.49
2023-05-07T08:13:36.908Z,20.44
2023-05-07T08:14:36.834Z,20.35
2023-05-07T08:15:36.776Z,20.46
2023-05-07T08:16:36.688Z,20.53
2023-05-07T08:17:36.658Z,20.66
2023-05-07T08:18:36.514Z,20.75
2023-05-07T08:19:36.444Z,20.82
2023-05-07T08:20:36.372Z,20.93
2023-05-07T08:21:36.278Z,21.03
2023-05-07T08:22:36.235Z,21.08
2023-05-07T08:23:36.129Z,21.14
2023-05-07T08:24:36.046Z,21.17
2023-05-07T08:25:36.000Z,21.24
2023-05-07T08:26:35.889Z,21.33
2023-05-07T08:27:35.915Z,21.34
2023-05-07T08:28:35.773Z,21.34
2023-05-07T08:29:35.741Z,21.42
2023-05-07T08:30:35.706Z,21.55
2023-05-07T08:31:35.652Z,21.63
2023-05-07T08:32:35.694Z,21.70
2023-05-07T08:33:35.610Z,21.78
2023-05-07T08:34:35.577Z,21.90
2023-05-07T08:35:35.537Z,22.01
2023-05-07T08:36:35.505Z,22.05
2023-05-07T08:37:35.470Z,22.05
2023-05-07T08:38:35.448Z,22.09
2023-05-07T08:39:35.404Z,22.16
2023-05-07T08:40:35.378Z,22.22
2023-05-07T08:41:35.335Z,22.27
2023-05-07T08:42:35.273Z,22.35
2023-05-07T08:43:35.319Z,22.41
2023-05-07T08:44:35.166Z,22.47
2023-05-07T08:45:35.110Z,22.53
2023-05-07T08:46:35.061Z,22.40
2023-05-07T08:47:34.971Z,22.44
2023-05-07T08:48:34.907Z,22.54
2023-05-07T08:49:34.820Z,22.68
2023-05-07T08:50:34.716Z,22.78
2023-05-07T08:51:34.632Z,22.85
2023-05-07T08:52:34.557Z,22.94
2023-05-07T08:53:34.484Z,23.06
2023-05-07T08:54:34.389Z,23.08
2023-05-07T08:55:34.365Z,23.10
2023-05-07T08:56:34.318Z,23.22
2023-05-07T08:57:34.239Z,23.28
2023-05-07T08:58:34.197Z,23.31
2023-05-07T08:59:34.176Z,23.46
2023-05-07T09:00:33.992Z,23.63
2023-05-07T09:01:33.980Z,23.74
2023-05-07T09:02:33.878Z,23.88
2023-05-07T09:03:33.744Z,24.00
2023-05-07T09:04:33.595Z,24.03
2023-05-07T09:05:33.516Z,24.15
2023-05-07T09:06:33.374Z,24.29
2023-05-07T09:07:33.268Z,24.42
2023-05-07T09:08:33.187Z,24.58
2023-05-07T09:09:33.111Z,24.67
2023-05-07T09:10:33.021Z,24.80
2023-05-07T09:11:32.935Z,24.83
2023-05-07T09:12:32.863Z,24.95
2023-05-07T09:13:32.756Z,25.01
2023-05-07T09:14:32.668Z,25.08
2023-05-07T09:15:32.696Z,25.22
2023-05-07T09:16:32.601Z,25.28
2023-05-07T09:17:32.519Z,25.15
2023-05-07T09:18:32.387Z,25.11
2023-05-07T09:19:32.261Z,25.19
2023-05-07T09:20:32.169Z,25.23
2023-05-07T09:21:32.812Z,25.42
2023-05-07T09:22:31.956Z,25.58
2023-05-07T09:23:31.829Z,25.72
2023-05-07T09:24:31.721Z,25.82
2023-05-07T09:25:31.627Z,25.85
2023-05-07T09:26:31.550Z,25.96
2023-05-07T09:27:31.476Z,26.14
2023-05-07T09:28:34.106Z,26.23
2023-05-07T09:29:31.273Z,26.02
2023-05-07T09:30:31.090Z,26.12
2023-05-07T09:31:31.085Z,26.22
2023-05-07T09:32:30.862Z,26.31
2023-05-07T09:33:30.681Z,26.43
2023-05-07T09:34:30.527Z,26.50
2023-05-07T09:35:30.384Z,26.49
2023-05-07T09:36:30.245Z,26.64
2023-05-07T09:37:30.091Z,26.82
2023-05-07T09:38:29.953Z,26.74
2023-05-07T09:39:29.813Z,26.81
2023-05-07T09:40:29.660Z,26.92
2023-05-07T09:41:29.507Z,27.03
2023-05-07T09:42:29.360Z,27.09
2023-05-07T09:43:29.212Z,27.22
2023-05-07T09:44:29.046Z,26.69
2023-05-07T09:45:28.937Z,26.66
2023-05-07T09:46:28.729Z,26.67
2023-05-07T09:47:28.659Z,26.81
2023-05-07T09:48:28.449Z,26.90
2023-05-07T09:49:28.287Z,27.01
2023-05-07T09:50:28.130Z,27.17
2023-05-07T09:51:28.099Z,27.16
2023-05-07T09:52:27.822Z,27.18
2023-05-07T09:53:27.693Z,27.16
2023-05-07T09:54:27.537Z,27.29
2023-05-07T09:55:27.369Z,27.34
2023-05-07T09:56:27.210Z,27.34
2023-05-07T09:57:27.067Z,27.00
2023-05-07T09:58:26.927Z,27.05
2023-05-07T09:59:30.148Z,27.19
2023-05-07T10:00:26.638Z,27.03
2023-05-07T10:01:26.486Z,27.13
2023-05-07T10:02:26.405Z,26.93
2023-05-07T10:03:26.336Z,26.92
2023-05-07T10:04:26.013Z,26.67
2023-05-07T10:05:25.860Z,26.48
2023-05-07T10:06:25.708Z,26.56
2023-05-07T10:07:25.552Z,26.56
2023-05-07T10:08:25.388Z,26.77
2023-05-07T10:09:25.231Z,26.90
2023-05-07T10:10:25.080Z,26.98
2023-05-07T10:11:24.912Z,27.07
2023-05-07T10:12:24.753Z,27.20
2023-05-07T10:13:24.609Z,27.22
2023-05-07T10:14:24.468Z,27.22
2023-05-07T10:15:24.294Z,27.10
2023-05-07T10:16:24.148Z,27.09
2023-05-07T10:17:24.128Z,27.15
2023-05-07T10:18:23.987Z,27.25
2023-05-07T10:19:23.846Z,27.36
2023-05-07T10:20:23.598Z,27.36
2023-05-07T10:21:23.439Z,27.41
2023-05-07T10:22:23.282Z,27.34
2023-05-07T10:23:23.142Z,27.13
2023-05-07T10:24:22.999Z,27.10
2023-05-07T10:25:22.828Z,27.16
2023-05-07T10:26:22.695Z,27.12
2023-05-07T10:27:22.574Z,27.07
2023-05-07T10:28:22.503Z,27.06
2023-05-07T10:29:22.345Z,27.08
2023-05-07T10:30:22.263Z,26.91
2023-05-07T10:31:22.230Z,26.65
2023-05-07T10:32:22.098Z,26.56
2023-05-07T10:33:22.011Z,26.59
2023-05-07T10:34:21.924Z,26.55
2023-05-07T10:35:21.991Z,26.47
2023-05-07T10:36:21.780Z,26.26
2023-05-07T10:37:21.659Z,26.20
2023-05-07T10:38:21.629Z,26.26
2023-05-07T10:39:21.536Z,26.32
2023-05-07T10:40:21.440Z,26.42
2023-05-07T10:41:21.330Z,26.56
2023-05-07T10:42:21.222Z,26.62
2023-05-07T10:43:21.091Z,26.62
2023-05-07T10:44:20.980Z,26.69
2023-05-07T10:45:20.870Z,26.57
2023-05-07T10:46:20.862Z,26.64
2023-05-07T10:47:20.725Z,26.73
2023-05-07T10:48:30.296Z,26.84
2023-05-07T10:49:21.719Z,26.73
2023-05-07T10:50:20.339Z,26.82
2023-05-07T10:51:20.316Z,26.84
2023-05-07T10:52:20.009Z,26.83
2023-05-07T10:53:19.941Z,26.86
2023-05-07T10:54:19.750Z,26.92
2023-05-07T10:55:19.627Z,26.89
2023-05-07T10:56:21.030Z,26.81
2023-05-07T10:57:19.491Z,26.67
2023-05-07T10:58:30.044Z,26.69
2023-05-07T10:59:19.311Z,26.69
2023-05-07T11:00:25.301Z,26.71
2023-05-07T11:01:19.136Z,26.54
2023-05-07T11:02:18.993Z,26.38
2023-05-07T11:03:18.860Z,26.25
2023-05-07T11:04:18.860Z,26.14
2023-05-07T11:05:18.744Z,26.15
2023-05-07T11:06:18.556Z,25.93
2023-05-07T11:07:18.493Z,25.55
2023-05-07T11:08:19.049Z,24.90
2023-05-07T11:09:18.345Z,24.76
2023-05-07T11:10:18.278Z,24.67
2023-05-07T11:11:18.211Z,24.55
2023-05-07T11:12:18.134Z,24.53
2023-05-07T11:13:18.082Z,24.46
2023-05-07T11:14:18.004Z,24.18
2023-05-07T11:15:17.933Z,23.96
2023-05-07T11:16:17.889Z,23.82
2023-05-07T11:17:17.789Z,23.76
2023-05-07T11:18:17.718Z,23.77
2023-05-07T11:19:17.656Z,23.68
2023-05-07T11:20:17.583Z,23.68
2023-05-07T11:21:17.515Z,23.51
2023-05-07T11:22:17.437Z,23.47
2023-05-07T11:23:17.471Z,23.32
2023-05-07T11:24:17.307Z,23.12
2023-05-07T11:25:17.256Z,23.06
2023-05-07T11:26:17.185Z,23.08
2023-05-07T11:27:17.151Z,23.07
2023-05-07T11:28:17.074Z,22.99
2023-05-07T11:29:18.844Z,22.73
2023-05-07T11:30:16.957Z,22.57
2023-05-07T11:31:16.929Z,22.43
2023-05-07T11:32:16.895Z,22.28
2023-05-07T11:33:16.865Z,22.16
2023-05-07T11:34:16.796Z,22.08
2023-05-07T11:35:16.803Z,22.08
2023-05-07T11:36:16.709Z,22.07
2023-05-07T11:37:16.660Z,22.12
2023-05-07T11:38:16.599Z,22.08
2023-05-07T11:39:16.573Z,22.10
2023-05-07T11:40:16.496Z,22.14
2023-05-07T11:41:16.426Z,22.13
2023-05-07T11:42:16.374Z,22.10
2023-05-07T11:43:16.329Z,22.08
2023-05-07T11:44:16.272Z,22.03
2023-05-07T11:45:16.237Z,22.04
2023-05-07T11:46:16.244Z,22.06
2023-05-07T11:47:16.111Z,22.08
2023-05-07T11:48:16.059Z,22.04
2023-05-07T11:49:15.999Z,22.08
2023-05-07T11:50:15.943Z,22.14
2023-05-07T11:51:15.903Z,22.19
2023-05-07T11:52:15.825Z,22.16
2023-05-07T11:53:15.766Z,22.01
2023-05-07T11:54:15.755Z,21.92
2023-05-07T11:55:15.749Z,21.83
2023-05-07T11:56:15.717Z,21.82
2023-05-07T11:57:15.703Z,21.75
2023-05-07T11:58:15.677Z,21.61
2023-05-07T11:59:15.676Z,21.57
2023-05-07T12:00:15.691Z,21.47
2023-05-07T12:01:15.680Z,21.33
2023-05-07T12:02:15.676Z,21.27
2023-05-07T12:03:15.736Z,21.35
2023-05-07T12:04:15.893Z,21.32
2023-05-07T12:05:15.765Z,21.30
2023-05-07T12:06:15.663Z,21.33
2023-05-07T12:07:15.637Z,21.25
2023-05-07T12:08:15.588Z,21.21
2023-05-07T12:09:15.554Z,21.23
2023-05-07T12:10:15.541Z,21.24
2023-05-07T12:11:15.551Z,21.25
2023-05-07T12:12:15.508Z,21.19
2023-05-07T12:13:15.631Z,21.17
2023-05-07T12:14:15.525Z,21.24
2023-05-07T12:15:15.540Z,21.31
2023-05-07T12:16:15.524Z,21.35
2023-05-07T12:17:15.701Z,21.33
2023-05-07T12:18:15.554Z,21.34
2023-05-07T12:19:16.079Z,21.30
2023-05-07T12:20:15.563Z,21.28
2023-05-07T12:21:15.592Z,21.32
2023-05-07T12:22:15.607Z,21.38
2023-05-07T12:23:15.629Z,21.43
2023-05-07T12:24:15.636Z,21.50
2023-05-07T12:25:15.858Z,21.51
2023-05-07T12:26:15.630Z,21.58
2023-05-07T12:27:15.677Z,21.68
2023-05-07T12:28:15.567Z,21.73
2023-05-07T12:29:15.532Z,21.80
2023-05-07T12:30:15.520Z,21.85
2023-05-07T12:31:15.677Z,21.80
2023-05-07T12:32:15.537Z,21.81
2023-05-07T12:33:15.515Z,21.76
2023-05-07T12:34:15.505Z,21.82
2023-05-07T12:35:15.499Z,21.90
2023-05-07T12:36:15.502Z,21.92
2023-05-07T12:37:15.446Z,21.98
2023-05-07T12:38:15.409Z,21.98
2023-05-07T12:39:15.380Z,21.94
2023-05-07T12:40:15.408Z,21.92
2023-05-07T12:41:15.422Z,21.95
2023-05-07T12:42:15.397Z,22.06
2023-05-07T12:43:15.383Z,22.11
2023-05-07T12:44:15.373Z,22.15
2023-05-07T12:45:15.574Z,22.23
2023-05-07T12:46:15.355Z,22.27
2023-05-07T12:47:15.310Z,22.34
2023-05-07T12:48:15.252Z,22.39
2023-05-07T12:49:15.197Z,22.39
2023-05-07T12:50:15.201Z,22.37
2023-05-07T12:51:15.158Z,22.22
2023-05-07T12:52:15.085Z,22.15